Time;durP1;ratioP1;P1;durP2;ratioP2;P2;SDS_P1;SDS_P2;PMS_P1;PMS_P2;Temp;Humidity;BMP_temperature;BMP_pressure;BME280_temperature;BME280_humidity;BME280_pressure;Samples;Min_cycle;Max_cycle;Signal;HPM_P1;HPM_P2
2022/05/03 00:00:50;;;;;;;6.65;2.45;;;;;;;6.08;100.00;101271.22;4926007;29;20780;-71
2022/05/03 00:03:24;;;;;;;4.45;2.72;;;;;;;6.06;100.00;101278.44;4912614;29;20159;-71
2022/05/03 00:06:08;;;;;;;5.80;2.28;;;;;;;6.10;100.00;101274.59;4929507;29;20115;-72
2022/05/03 00:08:59;;;;;;;5.65;2.67;;;;;;;6.01;100.00;101270.03;4929164;29;20426;-72
2022/05/03 00:11:42;;;;;;;7.05;2.35;;;;;;;5.96;100.00;101277.50;4929222;29;20044;-71
2022/05/03 00:14:17;;;;;;;6.50;3.17;;;;;;;5.96;100.00;101288.94;4934190;29;20043;-72
2022/05/03 00:16:44;;;;;;;3.85;2.60;;;;;;;6.00;100.00;101302.81;4938075;29;20042;-71
2022/05/03 00:19:10;;;;;;;6.72;3.08;;;;;;;5.99;100.00;101291.34;4932931;29;20027;-70
2022/05/03 00:21:37;;;;;;;5.00;3.05;;;;;;;6.02;100.00;101290.28;4932774;29;20122;-72
2022/05/03 00:24:04;;;;;;;6.63;3.58;;;;;;;6.01;100.00;101289.41;4896356;29;20026;-74
2022/05/03 00:26:31;;;;;;;6.95;3.20;;;;;;;6.05;100.00;101285.56;4912002;29;20540;-74
2022/05/03 00:28:57;;;;;;;4.13;3.00;;;;;;;6.03;100.00;101289.31;4911961;29;20027;-71
2022/05/03 00:31:24;;;;;;;5.93;3.22;;;;;;;6.10;100.00;101287.88;4933402;29;20297;-74
2022/05/03 00:33:51;;;;;;;10.90;4.18;;;;;;;6.09;100.00;101287.03;4895820;29;20024;-71
2022/05/03 00:36:16;;;;;;;5.88;3.03;;;;;;;6.06;100.00;101286.41;4933728;29;20110;-74
2022/05/03 00:38:41;;;;;;;5.97;3.70;;;;;;;5.98;100.00;101284.38;4927688;29;20127;-70
2022/05/03 00:41:10;;;;;;;6.67;3.37;;;;;;;5.92;100.00;101285.66;4908608;29;20043;-73
2022/05/03 00:43:45;;;;;;;5.97;3.08;;;;;;;5.92;100.00;101284.78;4930125;29;20028;-72
2022/05/03 00:46:21;;;;;;;9.80;3.08;;;;;;;5.95;100.00;101283.75;4935455;29;20035;-73
2022/05/03 00:49:12;;;;;;;5.68;3.30;;;;;;;5.92;100.00;101293.63;4934556;29;20082;-73
2022/05/03 00:52:13;;;;;;;8.70;3.55;;;;;;;5.87;100.00;101297.56;4923520;29;20039;-70
2022/05/03 00:54:41;;;;;;;7.40;3.60;;;;;;;5.83;100.00;101296.97;4895135;29;20102;-71
2022/05/03 00:57:20;;;;;;;4.53;3.20;;;;;;;5.79;100.00;101295.50;4923755;29;20051;-70
2022/05/03 01:00:07;;;;;;;6.63;3.38;;;;;;;5.90;100.00;101313.25;4919782;29;20046;-73
2022/05/03 01:03:20;;;;;;;5.57;3.63;;;;;;;6.05;100.00;101314.72;4928461;29;20039;-70
2022/05/03 01:06:14;;;;;;;8.23;3.13;;;;;;;6.12;100.00;101312.44;4919868;29;20043;-73
2022/05/03 01:09:06;;;;;;;6.50;3.83;;;;;;;6.22;100.00;101307.25;4929811;29;20032;-70
2022/05/03 01:11:46;;;;;;;6.25;4.28;;;;;;;6.37;100.00;101303.41;4900143;29;20485;-73
2022/05/03 01:14:50;;;;;;;10.70;4.45;;;;;;;6.43;100.00;101310.03;4915656;29;20063;-71
2022/05/03 01:17:36;;;;;;;6.78;3.78;;;;;;;6.46;100.00;101300.03;4912874;29;20516;-73
2022/05/03 01:20:05;;;;;;;11.27;5.78;;;;;;;6.52;100.00;101304.84;4933034;29;20035;-70
2022/05/03 01:23:10;;;;;;;7.75;3.80;;;;;;;6.54;100.00;101300.25;4916309;29;20507;-73
2022/05/03 01:25:54;;;;;;;;;;;;;;;6.52;100.00;101296.88;4909353;29;20038;-70
2022/05/03 01:28:30;;;;;;;6.22;3.45;;;;;;;6.45;100.00;101282.41;4908221;29;20017;-71
2022/05/03 01:31:04;;;;;;;5.90;3.42;;;;;;;6.42;100.00;101281.84;4907333;29;20134;-73
2022/05/03 01:33:37;;;;;;;8.32;4.63;;;;;;;6.36;100.00;101282.31;4916146;29;20036;-72
2022/05/03 01:36:06;;;;;;;10.63;4.93;;;;;;;6.34;100.00;101285.94;4895820;29;20142;-70
2022/05/03 01:39:05;;;;;;;12.88;4.45;;;;;;;6.40;100.00;101289.06;4928105;29;20040;-73
2022/05/03 01:41:54;;;;;;;9.20;4.07;;;;;;;6.41;100.00;101290.75;4925489;29;20049;-73
2022/05/03 01:44:53;;;;;;;6.15;4.28;;;;;;;6.48;100.00;101286.63;4930857;29;20485;-73
2022/05/03 01:47:25;;;;;;;10.45;4.00;;;;;;;6.53;100.00;101280.00;4936731;29;20040;-71
2022/05/03 01:50:18;;;;;;;9.38;4.60;;;;;;;6.61;100.00;101279.38;4933360;29;20035;-72
2022/05/03 01:53:03;;;;;;;8.43;4.50;;;;;;;6.59;100.00;101268.03;4931385;29;20047;-73
2022/05/03 01:59:45;;;;;;;8.75;4.55;;;;;;;6.74;100.00;101269.47;4928710;29;20572;-73
2022/05/03 02:02:36;;;;;;;8.20;3.72;;;;;;;6.80;100.00;101259.31;4919473;29;20036;-71
2022/05/03 02:05:08;;;;;;;7.82;4.47;;;;;;;6.84;100.00;101258.09;4933582;29;20028;-73
2022/05/03 02:07:53;;;;;;;6.28;4.20;;;;;;;6.87;100.00;101257.84;4903325;29;20035;-73
2022/05/03 02:10:38;;;;;;;;;;;;;;;6.85;100.00;101260.63;4923532;29;20482;-73
2022/05/03 02:14:43;;;;;;;9.93;4.78;;;;;;;6.93;100.00;101257.31;4907952;29;19985;-73
2022/05/03 02:16:27;;;;;;;10.95;4.95;;;;;;;6.86;100.00;101246.38;4932871;29;20486;-73
2022/05/03 02:19:34;;;;;;;8.35;4.47;;;;;;;6.91;100.00;101254.81;4932426;29;20035;-70
2022/05/03 02:22:17;;;;;;;9.20;4.88;;;;;;;6.89;100.00;101251.44;4904122;29;20079;-73
2022/05/03 02:24:56;;;;;;;8.60;4.97;;;;;;;6.81;100.00;101247.72;4908018;29;20397;-73
2022/05/03 02:27:25;;;;;;;8.05;4.70;;;;;;;6.81;100.00;101247.72;4933617;29;20066;-73
2022/05/03 02:29:50;;;;;;;7.80;4.95;;;;;;;6.76;100.00;101251.59;4922675;29;20032;-71
2022/05/03 02:32:22;;;;;;;9.85;4.43;;;;;;;6.70;100.00;101253.91;4926587;29;20308;-72
2022/05/03 02:34:58;;;;;;;9.65;5.03;;;;;;;6.71;100.00;101251.13;4935297;29;20126;-73
2022/05/03 02:37:28;;;;;;;8.95;5.10;;;;;;;6.71;100.00;101243.16;4910663;29;20041;-70
2022/05/03 02:40:07;;;;;;;18.95;6.85;;;;;;;6.70;100.00;101241.50;4931462;29;20035;-73
2022/05/03 02:42:33;;;;;;;11.93;6.05;;;;;;;6.67;100.00;101248.84;4928745;29;20043;-72
2022/05/03 02:45:01;;;;;;;11.25;5.25;;;;;;;6.73;100.00;101243.06;4922647;29;20031;-73
2022/05/03 02:47:49;;;;;;;12.43;5.22;;;;;;;6.79;100.00;101245.22;4912620;29;20035;-72
2022/05/03 02:50:20;;;;;;;9.52;4.97;;;;;;;6.89;100.00;101253.25;4932547;29;20517;-71
2022/05/03 02:53:06;;;;;;;10.68;4.93;;;;;;;6.97;100.00;101243.66;4929501;29;20035;-71
2022/05/03 02:56:01;;;;;;;10.90;5.10;;;;;;;7.01;100.00;101232.81;4927563;29;20039;-71
2022/05/03 02:59:03;;;;;;;9.98;5.35;;;;;;;7.03;100.00;101226.41;4934817;29;20079;-72
2022/05/03 03:01:54;;;;;;;10.65;5.35;;;;;;;7.05;100.00;101216.50;4936674;29;20082;-71
2022/05/03 03:04:34;;;;;;;14.18;6.50;;;;;;;7.10;100.00;101218.78;4907004;29;20036;-72
2022/05/03 03:07:02;;;;;;;11.35;5.97;;;;;;;7.03;100.00;101202.50;4890673;29;20036;-72
2022/05/03 03:09:40;;;;;;;12.13;5.43;;;;;;;7.04;100.00;101217.47;4911668;29;20110;-72
2022/05/03 03:12:53;;;;;;;11.13;6.07;;;;;;;6.98;100.00;101210.03;4934521;29;20568;-71
2022/05/03 03:15:25;;;;;;;8.57;5.50;;;;;;;7.02;100.00;101213.25;4904561;29;20051;-71
2022/05/03 03:17:51;;;;;;;10.75;6.22;;;;;;;7.05;100.00;101215.66;4929767;29;20562;-71
2022/05/03 03:20:24;;;;;;;11.07;6.75;;;;;;;7.07;100.00;101224.31;4908301;29;20032;-71
2022/05/03 03:22:49;;;;;;;12.10;6.50;;;;;;;7.07;100.00;101219.00;4932237;29;20035;-72
2022/05/03 03:25:17;;;;;;;10.23;5.93;;;;;;;7.16;100.00;101224.44;4930253;29;20027;-71
2022/05/03 03:27:44;;;;;;;12.10;6.60;;;;;;;7.23;100.00;101226.53;4911291;29;20036;-71
2022/05/03 03:30:12;;;;;;;11.30;7.03;;;;;;;7.24;100.00;101218.47;4904918;29;20038;-72
2022/05/03 03:32:42;;;;;;;11.45;6.90;;;;;;;7.32;100.00;101231.09;4930036;29;20040;-72
2022/05/03 03:35:08;;;;;;;11.57;7.03;;;;;;;7.33;100.00;101225.66;4904794;29;20024;-72
2022/05/03 03:37:34;;;;;;;16.80;9.02;;;;;;;7.39;100.00;101224.28;4933829;29;20034;-72
2022/05/03 03:40:00;;;;;;;;;;;;;;;7.41;100.00;101232.97;4911639;29;20067;-72
2022/05/03 03:42:26;;;;;;;;;;;;;;;7.49;100.00;101229.66;4910630;29;19952;-72
2022/05/03 03:44:52;;;;;;;14.02;7.97;;;;;;;7.48;100.00;101236.78;4931493;29;19926;-72
2022/05/03 03:47:18;;;;;;;13.52;8.30;;;;;;;7.55;100.00;101237.09;4930699;29;20437;-72
2022/05/03 03:49:43;;;;;;;18.47;10.47;;;;;;;7.53;100.00;101231.91;4928964;29;20027;-72
2022/05/03 03:52:10;;;;;;;15.75;10.15;;;;;;;7.59;100.00;101250.00;4930731;29;20047;-72
2022/05/03 03:54:37;;;;;;;18.83;10.63;;;;;;;7.59;100.00;101235.88;4928917;29;20118;-71
2022/05/03 03:57:04;;;;;;;15.85;9.52;;;;;;;7.64;100.00;101238.97;4901307;29;20032;-72
2022/05/03 03:59:31;;;;;;;16.85;9.43;;;;;;;7.68;100.00;101244.84;4933798;29;20035;-72
2022/05/03 04:01:58;;;;;;;23.52;10.75;;;;;;;7.70;100.00;101237.59;4909712;29;20031;-72
2022/05/03 04:04:29;;;;;;;;;;;;;;;7.70;100.00;101232.28;4904857;29;20050;-72
2022/05/03 04:06:55;;;;;;;19.40;9.93;;;;;;;7.68;100.00;101232.44;4919998;29;19927;-72
2022/05/03 04:09:20;;;;;;;19.77;11.73;;;;;;;7.78;100.00;101235.13;4930639;29;20041;-71
2022/05/03 04:11:47;;;;;;;21.20;11.48;;;;;;;7.83;100.00;101240.91;4929709;29;20424;-72
2022/05/03 04:14:13;;;;;;;;;;;;;;;7.85;100.00;101249.59;4921426;29;20031;-72
2022/05/03 04:16:38;;;;;;;;;;;;;;;7.93;100.00;101243.59;4959868;23;19929;-79
2022/05/03 04:19:03;;;;;;;;;;;;;;;7.88;100.00;101238.69;4947696;29;19978;-80
2022/05/03 04:21:29;;;;;;;35.63;14.50;;;;;;;7.84;100.00;101237.25;4944087;29;19926;-79
2022/05/03 04:23:54;;;;;;;30.90;13.03;;;;;;;7.87;100.00;101244.97;4945635;28;20114;-78
2022/05/03 04:26:20;;;;;;;27.70;13.60;;;;;;;7.85;100.00;101244.28;4951270;29;20415;-81
2022/05/03 04:28:45;;;;;;;36.37;15.67;;;;;;;7.93;100.00;101244.44;4947684;29;20055;-80
2022/05/03 04:31:11;;;;;;;30.23;14.10;;;;;;;8.00;100.00;101258.88;4951349;28;20031;-81
2022/05/03 04:33:36;;;;;;;38.53;16.80;;;;;;;7.98;100.00;101252.88;4935077;29;20031;-80
2022/05/03 04:36:04;;;;;;;42.13;16.10;;;;;;;7.99;100.00;101254.53;4950972;29;20099;-81
2022/05/03 04:38:29;;;;;;;34.92;16.50;;;;;;;7.98;100.00;101252.88;4955960;28;20127;-79
2022/05/03 04:41:02;;;;;;;32.20;15.63;;;;;;;7.96;100.00;101260.13;4950037;28;20673;-81
2022/05/03 04:43:28;;;;;;;40.55;18.25;;;;;;;7.89;100.00;101261.66;4932768;29;20054;-81
2022/05/03 04:45:53;;;;;;;37.28;15.88;;;;;;;7.89;100.00;101259.00;4950066;28;20476;-81
2022/05/03 04:48:19;;;;;;;33.38;16.52;;;;;;;7.92;100.00;101264.03;4948023;29;20141;-79
2022/05/03 04:50:46;;;;;;;46.08;16.85;;;;;;;7.83;100.00;101270.13;4941590;28;20028;-79
2022/05/03 04:53:12;;;;;;;37.47;16.55;;;;;;;7.89;100.00;101268.75;4949216;29;20039;-81
2022/05/03 04:55:41;;;;;;;40.42;16.80;;;;;;;7.89;100.00;101268.75;4943652;28;20030;-81
2022/05/03 04:58:06;;;;;;;32.80;16.90;;;;;;;7.94;100.00;101271.88;4934160;29;20090;-81
2022/05/03 05:00:32;;;;;;;39.38;18.20;;;;;;;8.04;100.00;101268.28;4947900;28;20027;-81
2022/05/03 05:02:57;;;;;;;52.22;17.45;;;;;;;8.04;100.00;101262.97;4946508;29;20038;-81
2022/05/03 05:05:23;;;;;;;37.10;17.03;;;;;;;8.04;100.00;101257.63;4933274;29;20027;-81
2022/05/03 05:07:48;;;;;;;42.17;16.63;;;;;;;8.16;100.00;101261.03;4941192;29;20135;-82
2022/05/03 05:10:23;;;;;;;42.57;18.73;;;;;;;8.17;100.00;101264.53;4927349;29;20468;-80
2022/05/03 05:12:48;;;;;;;41.00;16.70;;;;;;;8.19;100.00;101268.78;4942086;29;20075;-82
2022/05/03 05:15:14;;;;;;;35.17;16.80;;;;;;;8.21;100.00;101271.28;4934677;29;20054;-80
2022/05/03 05:17:39;;;;;;;46.97;17.73;;;;;;;8.23;100.00;101272.81;4950970;28;20036;-78
2022/05/03 05:20:05;;;;;;;40.70;18.97;;;;;;;8.26;100.00;101274.38;4933465;28;20452;-79
2022/05/03 05:22:30;;;;;;;41.38;18.10;;;;;;;8.15;100.00;101272.66;4938864;29;20481;-81
2022/05/03 05:24:56;;;;;;;36.70;18.13;;;;;;;8.17;100.00;101284.03;4957450;28;20031;-80
2022/05/03 05:27:21;;;;;;;39.83;18.17;;;;;;;8.24;100.00;101284.31;4946091;29;20130;-82
2022/05/03 05:29:46;;;;;;;37.50;19.23;;;;;;;8.19;100.00;101275.88;4929405;29;20037;-81
2022/05/03 05:32:12;;;;;;;32.20;16.40;;;;;;;8.32;100.00;101287.16;4931672;29;20066;-82
2022/05/03 05:34:37;;;;;;;31.60;16.63;;;;;;;8.27;100.00;101299.19;4942817;28;20043;-82
2022/05/03 05:37:02;;;;;;;35.97;16.47;;;;;;;8.28;100.00;101291.06;4947376;29;20047;-82
2022/05/03 05:39:28;;;;;;;34.40;16.23;;;;;;;8.30;100.00;101289.09;4934984;29;20412;-80
2022/05/03 05:41:59;;;;;;;32.93;17.43;;;;;;;8.43;100.00;101300.38;4967582;28;20043;-81
2022/05/03 05:44:25;;;;;;;33.35;15.65;;;;;;;8.46;100.00;101293.97;4953117;29;20031;-79
2022/05/03 05:46:52;;;;;;;32.85;16.05;;;;;;;8.48;100.00;101292.00;4937538;29;20488;-80
2022/05/03 05:49:17;;;;;;;35.92;16.08;;;;;;;8.43;100.00;101284.44;4953312;29;20063;-83
2022/05/03 05:51:43;;;;;;;29.92;15.30;;;;;;;8.49;100.00;101283.03;4937581;29;20455;-82
2022/05/03 05:54:08;;;;;;;29.60;16.20;;;;;;;8.66;100.00;101274.41;4953310;29;20154;-83
2022/05/03 05:56:34;;;;;;;29.90;15.20;;;;;;;8.71;100.00;101276.66;4942950;28;20241;-79
2022/05/03 05:58:59;;;;;;;27.43;14.57;;;;;;;8.55;100.00;101261.22;4969713;28;20118;-79
2022/05/03 06:01:26;;;;;;;35.07;14.77;;;;;;;8.62;100.00;101264.16;4951545;28;20151;-80
2022/05/03 06:03:52;;;;;;;27.67;12.93;;;;;;;8.86;100.00;101264.59;4969083;28;20062;-84
2022/05/03 06:06:17;;;;;;;23.52;13.95;;;;;;;8.97;100.00;101263.66;4936623;29;20034;-83
2022/05/03 06:08:43;;;;;;;29.23;13.10;;;;;;;8.94;100.00;101242.59;4950065;29;20035;-83
2022/05/03 06:11:09;;;;;;;24.60;12.47;;;;;;;9.22;100.00;101243.56;4954338;28;20039;-83
2022/05/03 06:13:35;;;;;;;;;;;;;;;9.18;100.00;101241.38;4938476;29;20054;-82
2022/05/03 06:16:07;;;;;;;;;;;;;;;9.19;100.00;101230.53;4934909;29;19914;-84
2022/05/03 06:18:33;;;;;;;22.33;12.63;;;;;;;9.28;100.00;101227.03;4953749;29;19914;-83
2022/05/03 06:20:59;;;;;;;29.08;13.10;;;;;;;9.65;100.00;101231.59;4934230;29;20917;-81
2022/05/03 06:23:24;;;;;;;22.33;11.13;;;;;;;9.86;100.00;101226.06;4954642;29;20047;-80
2022/05/03 06:25:50;;;;;;;22.27;10.88;;;;;;;9.54;100.00;101209.59;4952172;29;20042;-81
2022/05/03 06:28:15;;;;;;;23.93;12.77;;;;;;;9.85;100.00;101220.84;4951141;29;20050;-81
2022/05/03 06:30:41;;;;;;;22.47;11.90;;;;;;;10.09;100.00;101226.53;4948386;28;20037;-83
2022/05/03 06:33:07;;;;;;;19.83;10.38;;;;;;;10.08;100.00;101199.97;4934386;29;20045;-82
2022/05/03 06:35:33;;;;;;;19.75;10.30;;;;;;;10.04;100.00;101196.75;4940379;28;20365;-82
2022/05/03 06:37:58;;;;;;;21.73;10.30;;;;;;;9.79;100.00;101189.47;4947235;29;20038;-82
2022/05/03 06:40:24;;;;;;;18.40;9.93;;;;;;;9.97;100.00;101174.34;4935335;29;20031;-79
2022/05/03 06:42:49;;;;;;;18.73;8.70;;;;;;;9.84;100.00;101158.69;4950677;29;20050;-78
2022/05/03 06:45:14;;;;;;;19.50;9.17;;;;;;;10.12;100.00;101167.53;4934066;29;20038;-81
2022/05/03 06:47:40;;;;;;;14.73;7.07;;;;;;;10.42;100.00;101167.34;4945202;28;20067;-81
2022/05/03 06:50:07;;;;;;;14.37;5.70;;;;;;;10.49;100.00;101137.25;4951632;28;20483;-80
2022/05/03 06:52:33;;;;;;;13.50;4.85;;;;;;;10.46;100.00;101068.13;4965202;28;20039;-81
2022/05/03 06:54:59;;;;;;;15.02;4.47;;;;;;;10.44;100.00;101038.13;4936567;29;20030;-80
2022/05/03 06:57:24;;;;;;;9.67;4.13;;;;;;;10.67;100.00;101037.59;4946552;28;20038;-79
2022/05/03 06:59:50;;;;;;;17.70;4.10;;;;;;;10.60;100.00;101028.53;4947593;29;20098;-81
2022/05/03 07:02:15;;;;;;;9.50;4.17;;;;;;;10.99;100.00;101047.66;4948802;28;20040;-81
2022/05/03 07:04:43;;;;;;;10.53;4.00;;;;;;;11.08;100.00;101038.72;4949915;29;20275;-81
2022/05/03 07:07:10;;;;;;;18.35;4.25;;;;;;;11.38;100.00;101076.63;4936945;29;20035;-80
2022/05/03 07:09:36;;;;;;;;;;;;;;;11.24;96.17;101021.06;4951909;28;20032;-81
2022/05/03 07:12:01;;;;;;;;;;;;;;;11.17;93.53;100986.97;4954218;28;19986;-81
2022/05/03 07:14:27;;;;;;;;;;;;;;;11.17;91.78;100986.16;4968465;28;20005;-83
2022/05/03 07:16:52;;;;;;;8.20;3.47;;;;;;;11.76;90.43;101021.75;4963621;28;20000;-83
2022/05/03 07:22:45;;;;;;;10.38;5.55;;;;;;;12.90;80.29;100931.72;4954986;28;20031;-82
2022/05/03 07:24:56;;;;;;;8.82;3.75;;;;;;;13.21;77.89;100912.16;4947178;29;20045;-83
2022/05/03 07:27:21;;;;;;;13.73;3.50;;;;;;;13.23;77.14;100921.69;4936156;29;20118;-82
2022/05/03 07:29:47;;;;;;;18.80;5.17;;;;;;;13.40;73.83;100863.44;4933100;29;20504;-83
2022/05/03 07:32:12;;;;;;;11.00;3.85;;;;;;;12.66;73.94;100807.53;4949846;28;20078;-84
2022/05/03 07:34:38;;;;;;;11.40;3.47;;;;;;;12.44;75.14;100859.19;4945239;29;20043;-83
2022/05/03 07:37:04;;;;;;;12.20;3.33;;;;;;;12.40;74.58;100866.72;4934954;29;20015;-83
2022/05/03 07:39:30;;;;;;;10.27;3.35;;;;;;;13.24;74.08;100938.59;4930792;29;20039;-84
2022/05/03 07:41:57;;;;;;;13.30;3.22;;;;;;;13.58;71.86;100902.53;4942394;28;20450;-83
2022/05/03 07:44:23;;;;;;;9.20;3.63;;;;;;;12.87;70.49;100806.09;4934664;29;20039;-83
2022/05/03 07:46:48;;;;;;;16.83;4.27;;;;;;;12.91;72.59;100889.66;4948570;29;20106;-82
2022/05/03 07:49:13;;;;;;;14.67;3.80;;;;;;;12.46;73.13;100875.94;4933598;29;20283;-81
2022/05/03 07:51:41;;;;;;;13.17;3.80;;;;;;;13.35;73.33;100983.81;4949992;28;20038;-80
2022/05/03 07:54:06;;;;;;;13.48;3.80;;;;;;;13.63;69.16;100873.34;4947414;28;20062;-83
2022/05/03 07:56:32;;;;;;;12.30;3.33;;;;;;;14.16;68.66;100944.03;4934272;29;20473;-80
2022/05/03 07:58:57;;;;;;;8.00;3.37;;;;;;;13.63;67.10;100819.72;4948931;28;20079;-84
2022/05/03 08:01:22;;;;;;;8.67;2.90;;;;;;;13.08;68.16;100821.56;4934474;29;20121;-84
2022/05/03 08:03:48;;;;;;;15.47;2.87;;;;;;;13.01;68.61;100848.22;4930183;29;20112;-80
2022/05/03 08:06:13;;;;;;;11.80;3.00;;;;;;;13.33;68.87;100926.03;4933586;29;20153;-84
2022/05/03 08:08:38;;;;;;;8.50;2.80;;;;;;;13.34;69.29;100943.75;4930682;29;20046;-81
2022/05/03 08:11:04;;;;;;;8.23;2.77;;;;;;;13.47;67.51;100909.16;4946180;28;20532;-81
2022/05/03 08:13:30;;;;;;;34.03;3.33;;;;;;;13.39;69.52;100982.47;4949377;29;20575;-83
2022/05/03 08:15:55;;;;;;;11.10;3.30;;;;;;;13.57;65.03;100849.94;4932844;29;20414;-82
2022/05/03 08:18:20;;;;;;;9.43;2.90;;;;;;;14.21;63.48;100858.41;4950656;28;20518;-82
2022/05/03 08:20:46;;;;;;;10.37;4.10;;;;;;;14.20;60.19;100738.59;4945747;28;20547;-81
2022/05/03 08:23:11;;;;;;;5.63;2.50;;;;;;;14.86;60.39;100846.09;4932920;29;20506;-82
2022/05/03 08:25:37;;;;;;;19.27;3.07;;;;;;;15.46;59.35;100878.22;4930214;29;20040;-80
2022/05/03 08:28:04;;;;;;;10.57;3.25;;;;;;;15.30;56.67;100710.66;4944850;29;20503;-84
2022/05/03 08:30:29;;;;;;;8.90;3.10;;;;;;;14.94;58.00;100756.44;4929963;29;20031;-81
2022/05/03 08:32:55;;;;;;;14.32;3.20;;;;;;;15.43;58.88;100879.44;4952178;28;20047;-80
2022/05/03 08:35:24;;;;;;;10.57;3.77;;;;;;;14.66;58.21;100759.03;4931362;29;20062;-83
2022/05/03 08:43:18;;;;;;;9.15;2.78;;;;;;;15.86;54.60;100711.69;4951776;28;20086;-85
2022/05/03 08:45:49;;;;;;;5.15;2.40;;;;;;;16.25;56.49;100860.06;4943472;29;20067;-88
2022/05/03 08:48:16;;;;;;;5.25;2.28;;;;;;;16.55;53.95;100789.78;4949188;29;20055;-81
2022/05/03 08:50:42;;;;;;;6.63;1.98;;;;;;;17.09;53.12;100833.94;4956228;28;20031;-83
2022/05/03 08:53:09;;;;;;;11.07;2.63;;;;;;;16.65;51.89;100681.56;4946334;28;20239;-81
2022/05/03 08:55:35;;;;;;;10.32;2.33;;;;;;;16.51;51.59;100642.16;4953578;28;20031;-80
2022/05/03 08:58:00;;;;;;;7.20;2.35;;;;;;;16.13;54.06;100748.53;4940655;29;20024;-84
2022/05/03 09:00:26;;;;;;;13.00;2.47;;;;;;;16.80;52.81;100806.25;4949640;28;20114;-83
2022/05/03 09:02:56;;;;;;;14.67;2.80;;;;;;;16.75;52.67;100794.41;4928971;29;20448;-83
2022/05/03 09:05:23;;;;;;;10.95;3.00;;;;;;;16.74;52.87;100785.50;4928683;29;20677;-82
2022/05/03 09:07:51;;;;;;;6.97;2.17;;;;;;;15.77;53.00;100694.88;4941606;29;20028;-79
2022/05/03 09:10:21;;;;;;;7.90;3.25;;;;;;;16.18;53.30;100778.38;4946640;28;20535;-83
2022/05/03 09:12:49;;;;;;;7.15;2.75;;;;;;;16.24;55.29;100879.94;4943648;28;20039;-83
2022/05/03 09:15:15;;;;;;;12.23;2.63;;;;;;;16.81;53.18;100864.56;4948037;28;20085;-81
2022/05/03 09:17:42;;;;;;;12.38;2.83;;;;;;;16.11;51.80;100672.47;4944168;29;20492;-82
2022/05/03 09:25:56;;;;;;;10.82;2.20;;;;;;;16.52;51.50;100759.69;4945309;29;20044;-79
2022/05/03 09:28:23;;;;;;;13.77;2.85;;;;;;;16.59;49.86;100676.97;4941496;28;20396;-82
2022/05/03 09:30:50;;;;;;;11.32;2.60;;;;;;;17.48;49.63;100817.00;4939333;28;20131;-80
2022/05/03 09:33:18;;;;;;;7.22;2.40;;;;;;;17.68;47.80;100725.22;4932650;29;20055;-83
2022/05/03 09:35:44;;;;;;;7.53;2.72;;;;;;;18.05;47.81;100789.56;4938830;29;20035;-81
2022/05/03 09:38:10;;;;;;;4.30;1.92;;;;;;;17.60;47.61;100657.13;4941764;28;20050;-84
2022/05/03 09:40:38;;;;;;;8.37;2.63;;;;;;;18.93;47.48;100879.19;4939012;29;20497;-83
2022/05/03 09:43:05;;;;;;;6.82;2.55;;;;;;;19.36;45.29;100774.84;4933953;29;20023;-80
2022/05/03 09:45:31;;;;;;;5.20;2.10;;;;;;;18.71;46.07;100713.66;4941616;28;20031;-81
2022/05/03 09:47:59;;;;;;;8.33;2.03;;;;;;;18.34;47.74;100753.97;4955656;28;20038;-82
2022/05/03 09:50:29;;;;;;;11.13;3.03;;;;;;;18.31;46.22;100673.31;4941661;28;20291;-81
2022/05/03 09:52:56;;;;;;;8.82;2.72;;;;;;;18.28;45.52;100637.78;4940811;29;20036;-82
2022/05/03 09:55:32;;;;;;;11.23;2.90;;;;;;;18.38;45.62;100670.59;4948718;28;20031;-84
2022/05/03 09:58:02;;;;;;;;;;;;;;;19.02;44.65;100739.09;4953212;28;20039;-84
2022/05/03 10:00:30;;;;;;;5.50;2.88;;;;;;;18.87;43.75;100612.28;4948719;28;19915;-85
2022/05/03 10:02:58;;;;;;;10.35;2.20;;;;;;;18.25;45.41;100614.72;4952438;28;20563;-81
2022/05/03 10:05:24;;;;;;;9.52;2.35;;;;;;;19.06;44.60;100707.84;4932038;29;20086;-82
2022/05/03 10:07:50;;;;;;;10.68;2.38;;;;;;;18.53;45.10;100646.78;4944296;28;20110;-82
2022/05/03 10:10:16;;;;;;;11.63;2.70;;;;;;;18.10;44.71;100561.00;4949817;28;20626;-84
2022/05/03 10:12:43;;;;;;;12.20;2.57;;;;;;;18.74;45.92;100755.66;4949712;29;20062;-81
2022/05/03 10:15:09;;;;;;;12.00;3.35;;;;;;;18.92;44.55;100704.41;4935590;29;20656;-83
2022/05/03 10:20:40;;;;;;;7.97;2.28;;;;;;;19.11;43.93;100723.44;4956829;28;20035;-80
2022/05/03 10:23:28;;;;;;;7.47;3.10;;;;;;;19.07;42.27;100535.50;4947275;28;20042;-85
2022/05/03 10:25:56;;;;;;;9.00;2.65;;;;;;;18.71;43.97;100621.72;4935713;29;20031;-84
2022/05/03 10:28:22;;;;;;;8.25;2.50;;;;;;;19.28;43.71;100718.31;4935632;29;20071;-84
2022/05/03 10:31:05;;;;;;;4.80;2.00;;;;;;;20.40;41.34;100723.63;4947474;28;20035;-85
2022/05/03 10:33:31;;;;;;;7.97;2.35;;;;;;;20.15;41.23;100635.09;4950849;29;20408;-84
2022/05/03 10:35:58;;;;;;;6.90;2.30;;;;;;;20.47;41.45;100716.25;4945463;28;20027;-82
2022/05/03 10:38:43;;;;;;;7.55;2.17;;;;;;;20.58;40.21;100619.72;4948049;29;20023;-83
2022/05/03 10:41:10;;;;;;;13.75;2.53;;;;;;;20.13;40.83;100564.03;4943635;29;20039;-83
2022/05/03 10:43:37;;;;;;;8.20;2.45;;;;;;;20.42;41.84;100689.00;4957525;28;20032;-84
2022/05/03 10:46:12;;;;;;;8.60;2.55;;;;;;;20.48;40.49;100600.47;4951626;29;20035;-82
2022/05/03 10:48:41;;;;;;;8.90;2.35;;;;;;;21.12;40.99;100731.00;4943994;28;20051;-82
2022/05/03 10:51:09;;;;;;;7.57;3.05;;;;;;;21.17;39.98;100633.41;4938015;29;20030;-85
2022/05/03 10:53:41;;;;;;;7.55;2.45;;;;;;;20.05;40.54;100495.81;4963442;28;20688;-79
2022/05/03 10:56:16;;;;;;;8.25;3.03;;;;;;;20.29;40.28;100527.31;4948345;29;20118;-82
2022/05/03 10:58:43;;;;;;;11.18;2.65;;;;;;;20.32;40.43;100528.75;4932250;29;20119;-84
2022/05/03 11:01:23;;;;;;;8.07;2.28;;;;;;;20.92;40.04;100610.00;4951376;28;20063;-80
2022/05/03 11:03:51;;;;;;;10.85;2.47;;;;;;;21.17;41.78;100750.16;4959897;28;20146;-84
2022/05/03 11:06:19;;;;;;;8.85;2.40;;;;;;;20.59;41.62;100597.81;4935439;29;20039;-85
2022/05/03 11:08:57;;;;;;;8.73;1.95;;;;;;;21.21;39.33;100610.13;4932336;29;20426;-83
2022/05/03 11:11:37;;;;;;;9.90;2.53;;;;;;;20.85;38.76;100512.44;4950149;28;20400;-84
2022/05/03 11:14:18;;;;;;;9.60;2.47;;;;;;;20.10;39.61;100417.34;4944741;29;20332;-84
2022/05/03 11:16:47;;;;;;;8.65;2.17;;;;;;;20.35;39.90;100466.75;4944601;29;20040;-81
2022/05/03 11:19:13;;;;;;;4.70;2.00;;;;;;;20.86;37.46;100402.03;4937353;29;20030;-84
2022/05/03 11:21:40;;;;;;;6.82;2.10;;;;;;;20.71;38.59;100475.75;4959979;28;20047;-81
2022/05/03 11:24:22;;;;;;;11.73;2.50;;;;;;;20.19;39.36;100427.59;4930221;29;20032;-84
2022/05/03 11:26:50;;;;;;;18.65;3.08;;;;;;;19.73;38.86;100287.50;4946227;28;20492;-84
2022/05/03 11:29:16;;;;;;;13.32;3.33;;;;;;;20.63;39.30;100535.81;4952420;28;20031;-85
2022/05/03 11:31:52;;;;;;;8.55;2.17;;;;;;;21.07;38.14;100504.53;4939020;29;20555;-86
2022/05/03 11:34:18;;;;;;;;;;;;;;;21.27;37.25;100463.41;4967827;28;20050;-87
2022/05/03 11:36:49;;;;;;;8.40;2.25;;;;;;;20.98;37.13;100400.13;4936432;29;19911;-86
2022/05/03 11:39:16;;;;;;;8.30;2.17;;;;;;;21.36;36.83;100431.28;4939017;29;20146;-84
2022/05/03 11:41:44;;;;;;;;;;;;;;;21.02;37.04;100355.16;4955950;28;20059;-86
2022/05/03 11:44:10;;;;;;;10.20;2.05;;;;;;;20.55;36.57;100263.03;4933990;29;19918;-85
2022/05/03 11:46:38;;;;;;;9.85;2.45;;;;;;;19.72;38.46;100311.06;4929348;29;20451;-81
2022/05/03 11:49:09;;;;;;;17.48;2.30;;;;;;;20.35;36.55;100301.41;4947474;28;20555;-82
2022/05/03 11:57:22;;;;;;;8.32;2.90;;;;;;;20.85;39.09;100584.88;4964762;28;20031;-83
2022/05/03 11:59:50;;;;;;;7.22;2.42;;;;;;;20.91;37.66;100474.56;4965561;28;20023;-87
2022/05/03 12:02:30;;;;;;;8.18;2.22;;;;;;;19.75;38.47;100318.69;4966918;28;20035;-84
2022/05/03 12:05:02;;;;;;;9.00;2.05;;;;;;;20.36;38.24;100416.06;4952244;29;20035;-84